createdAt,value
2023-02-19T00:00:45.362Z,1015.20
2023-02-19T00:01:45.345Z,1015.18
2023-02-19T00:02:45.334Z,1015.14
2023-02-19T00:03:45.388Z,1015.12
2023-02-19T00:04:45.424Z,1015.17
2023-02-19T00:05:45.284Z,1015.21
2023-02-19T00:06:45.289Z,1015.22
2023-02-19T00:07:45.267Z,1015.19
2023-02-19T00:08:45.263Z,1015.19
2023-02-19T00:09:45.251Z,1015.23
2023-02-19T00:10:45.225Z,1015.17
2023-02-19T00:11:45.206Z,1015.17
2023-02-19T00:12:45.204Z,1015.17
2023-02-19T00:13:45.193Z,1015.16
2023-02-19T00:14:45.183Z,1015.17
2023-02-19T00:15:45.209Z,1015.18
2023-02-19T00:16:45.136Z,1015.17
2023-02-19T00:17:45.123Z,1015.18
2023-02-19T00:18:45.117Z,1015.16
2023-02-19T00:19:45.106Z,1015.16
2023-02-19T00:20:45.087Z,1015.12
2023-02-19T00:21:45.108Z,1015.14
2023-02-19T00:22:45.062Z,1015.09
2023-02-19T00:23:45.053Z,1015.06
2023-02-19T00:24:45.044Z,1015.06
2023-02-19T00:25:45.006Z,1015.19
2023-02-19T00:26:45.065Z,1015.10
2023-02-19T00:27:44.997Z,1015.13
2023-02-19T00:28:44.978Z,1015.10
2023-02-19T00:29:44.983Z,1015.05
2023-02-19T00:30:44.990Z,1015.07
2023-02-19T00:31:45.019Z,1015.03
2023-02-19T00:32:44.923Z,1015.11
2023-02-19T00:33:44.906Z,1014.98
2023-02-19T00:34:44.926Z,1014.99
2023-02-19T00:35:44.881Z,1015.00
2023-02-19T00:36:44.877Z,1015.05
2023-02-19T00:37:44.851Z,1015.03
2023-02-19T00:38:44.848Z,1015.00
2023-02-19T00:39:44.841Z,1015.01
2023-02-19T00:40:44.815Z,1014.97
2023-02-19T00:41:44.789Z,1014.95
2023-02-19T00:42:44.794Z,1015.00
2023-02-19T00:43:44.772Z,1014.95
2023-02-19T00:44:44.782Z,1014.96
2023-02-19T00:45:44.741Z,1014.98
2023-02-19T00:46:44.746Z,1014.94
2023-02-19T00:47:44.715Z,1014.96
2023-02-19T00:48:44.707Z,1014.91
2023-02-19T00:49:44.702Z,1014.93
2023-02-19T00:50:44.692Z,1014.93
2023-02-19T00:51:44.658Z,1014.92
2023-02-19T00:52:44.653Z,1014.93
2023-02-19T00:53:44.635Z,1014.86
2023-02-19T00:54:44.646Z,1014.95
2023-02-19T00:55:44.603Z,1014.93
2023-02-19T00:56:44.593Z,1014.92
2023-02-19T00:57:44.596Z,1014.89
2023-02-19T00:58:44.571Z,1014.95
2023-02-19T00:59:44.573Z,1014.92
2023-02-19T01:00:44.542Z,1014.86
2023-02-19T01:01:44.732Z,1014.91
2023-02-19T01:02:44.523Z,1014.94
2023-02-19T01:03:44.500Z,1014.83
2023-02-19T01:04:44.577Z,1014.87
2023-02-19T01:05:44.483Z,1014.84
2023-02-19T01:06:44.463Z,1014.93
2023-02-19T01:07:44.451Z,1014.92
2023-02-19T01:08:44.439Z,1014.88
2023-02-19T01:09:44.438Z,1014.82
2023-02-19T01:10:44.409Z,1014.84
2023-02-19T01:11:44.402Z,1014.83
2023-02-19T01:12:44.371Z,1014.86
2023-02-19T01:13:44.361Z,1014.78
2023-02-19T01:14:44.378Z,1014.84
2023-02-19T01:15:44.381Z,1014.84
2023-02-19T01:16:44.324Z,1014.78
2023-02-19T01:17:44.301Z,1014.80
2023-02-19T01:18:44.300Z,1014.86
2023-02-19T01:19:44.279Z,1014.85
2023-02-19T01:20:44.279Z,1014.81
2023-02-19T01:21:44.245Z,1014.81
2023-02-19T01:22:44.232Z,1014.85
2023-02-19T01:23:44.212Z,1014.88
2023-02-19T01:24:44.211Z,1014.83
2023-02-19T01:25:44.210Z,1014.79
2023-02-19T01:26:44.181Z,1014.83
2023-02-19T01:27:44.160Z,1014.88
2023-02-19T01:28:44.158Z,1014.88
2023-02-19T01:29:44.141Z,1014.81
2023-02-19T01:30:44.141Z,1014.80
2023-02-19T01:31:44.176Z,1014.82
2023-02-19T01:32:44.092Z,1014.88
2023-02-19T01:33:44.073Z,1014.91
2023-02-19T01:34:44.074Z,1014.90
2023-02-19T01:35:44.074Z,1014.91
2023-02-19T01:36:44.042Z,1014.89
2023-02-19T01:37:44.032Z,1014.91
2023-02-19T01:38:44.014Z,1014.92
2023-02-19T01:39:44.002Z,1014.96
2023-02-19T01:40:44.000Z,1014.87
2023-02-19T01:41:43.965Z,1014.90
2023-02-19T01:42:43.961Z,1014.84
2023-02-19T01:43:43.945Z,1014.92
2023-02-19T01:44:43.940Z,1014.82
2023-02-19T01:45:43.945Z,1014.80
2023-02-19T01:46:43.961Z,1014.88
2023-02-19T01:47:43.892Z,1014.94
2023-02-19T01:48:43.876Z,1014.85
2023-02-19T01:49:43.855Z,1014.88
2023-02-19T01:50:43.869Z,1014.91
2023-02-19T01:51:43.836Z,1014.86
2023-02-19T01:52:43.816Z,1014.93
2023-02-19T01:53:43.814Z,1014.87
2023-02-19T01:54:43.798Z,1014.93
2023-02-19T01:55:43.802Z,1014.89
2023-02-19T01:56:43.771Z,1014.91
2023-02-19T01:57:43.761Z,1014.88
2023-02-19T01:58:43.738Z,1014.96
2023-02-19T01:59:43.720Z,1014.95
2023-02-19T02:00:43.771Z,1014.93
2023-02-19T02:01:43.730Z,1014.92
2023-02-19T02:02:43.688Z,1015.01
2023-02-19T02:03:43.669Z,1014.96
2023-02-19T02:04:43.680Z,1014.97
2023-02-19T02:05:43.658Z,1015.00
2023-02-19T02:06:43.661Z,1014.94
2023-02-19T02:07:43.613Z,1014.96
2023-02-19T02:08:43.608Z,1014.97
2023-02-19T02:09:43.601Z,1014.96
2023-02-19T02:10:43.609Z,1014.98
2023-02-19T02:11:43.561Z,1014.97
2023-02-19T02:12:43.554Z,1014.96
2023-02-19T02:13:45.210Z,1014.95
2023-02-19T02:14:43.529Z,1015.01
2023-02-19T02:15:43.552Z,1014.99
2023-02-19T02:16:43.502Z,1014.93
2023-02-19T02:17:43.482Z,1014.99
2023-02-19T02:18:43.464Z,1015.02
2023-02-19T02:19:43.454Z,1014.98
2023-02-19T02:20:43.449Z,1015.01
2023-02-19T02:21:43.445Z,1015.01
2023-02-19T02:22:43.426Z,1015.10
2023-02-19T02:23:43.402Z,1014.99
2023-02-19T02:24:43.392Z,1015.03
2023-02-19T02:25:43.378Z,1014.99
2023-02-19T02:26:43.375Z,1014.97
2023-02-19T02:27:43.354Z,1014.98
2023-02-19T02:28:43.330Z,1015.02
2023-02-19T02:29:43.317Z,1015.01
2023-02-19T02:30:43.308Z,1014.97
2023-02-19T02:31:43.419Z,1014.97
2023-02-19T02:32:43.310Z,1014.96
2023-02-19T02:33:43.279Z,1014.96
2023-02-19T02:34:43.263Z,1014.95
2023-02-19T02:35:43.228Z,1015.05
2023-02-19T02:36:43.236Z,1015.01
2023-02-19T02:37:43.205Z,1015.03
2023-02-19T02:38:43.196Z,1015.03
2023-02-19T02:39:43.199Z,1015.05
2023-02-19T02:40:43.170Z,1014.99
2023-02-19T02:41:43.162Z,1014.96
2023-02-19T02:42:43.137Z,1014.95
2023-02-19T02:43:43.135Z,1014.96
2023-02-19T02:44:43.114Z,1014.94
2023-02-19T02:45:43.134Z,1015.04
2023-02-19T02:46:43.105Z,1014.95
2023-02-19T02:47:43.066Z,1014.99
2023-02-19T02:48:43.080Z,1015.02
2023-02-19T02:49:43.037Z,1015.08
2023-02-19T02:50:43.027Z,1014.98
2023-02-19T02:51:43.067Z,1014.96
2023-02-19T02:52:43.009Z,1014.99
2023-02-19T02:53:43.002Z,1014.99
2023-02-19T02:54:42.984Z,1014.92
2023-02-19T02:55:42.958Z,1014.98
2023-02-19T02:56:42.981Z,1015.03
2023-02-19T02:57:42.929Z,1015.07
2023-02-19T02:58:42.926Z,1015.01
2023-02-19T02:59:42.922Z,1015.05
2023-02-19T03:00:42.921Z,1015.05
2023-02-19T03:01:42.889Z,1015.03
2023-02-19T03:02:42.869Z,1015.06
2023-02-19T03:03:42.851Z,1015.11
2023-02-19T03:04:42.849Z,1015.11
2023-02-19T03:05:42.825Z,1015.10
2023-02-19T03:06:42.833Z,1015.10
2023-02-19T03:07:42.815Z,1015.10
2023-02-19T03:08:42.788Z,1015.11
2023-02-19T03:09:42.777Z,1015.10
2023-02-19T03:10:42.841Z,1015.13
2023-02-19T03:11:42.767Z,1015.22
2023-02-19T03:12:42.730Z,1015.20
2023-02-19T03:13:42.720Z,1015.22
2023-02-19T03:14:42.708Z,1015.18
2023-02-19T03:15:42.691Z,1015.23
2023-02-19T03:16:43.061Z,1015.18
2023-02-19T03:17:42.698Z,1015.23
2023-02-19T03:18:42.663Z,1015.20
2023-02-19T03:19:42.643Z,1015.21
2023-02-19T03:20:42.623Z,1015.24
2023-02-19T03:21:42.620Z,1015.23
2023-02-19T03:22:42.609Z,1015.22
2023-02-19T03:23:42.586Z,1015.31
2023-02-19T03:24:42.566Z,1015.31
2023-02-19T03:25:42.562Z,1015.31
2023-02-19T03:26:42.576Z,1015.29
2023-02-19T03:27:42.557Z,1015.29
2023-02-19T03:28:42.547Z,1015.33
2023-02-19T03:29:42.508Z,1015.37
2023-02-19T03:30:42.499Z,1015.39
2023-02-19T03:31:42.574Z,1015.37
2023-02-19T03:32:42.479Z,1015.34
2023-02-19T03:33:42.469Z,1015.35
2023-02-19T03:34:42.444Z,1015.36
2023-02-19T03:35:42.439Z,1015.37
2023-02-19T03:36:42.418Z,1015.42
2023-02-19T03:37:42.431Z,1015.38
2023-02-19T03:38:42.381Z,1015.37
2023-02-19T03:39:42.369Z,1015.41
2023-02-19T03:40:42.357Z,1015.42
2023-02-19T03:41:42.340Z,1015.47
2023-02-19T03:42:42.341Z,1015.46
2023-02-19T03:43:42.325Z,1015.45
2023-02-19T03:44:42.302Z,1015.45
2023-02-19T03:45:42.305Z,1015.39
2023-02-19T03:46:42.278Z,1015.40
2023-02-19T03:47:42.298Z,1015.33
2023-02-19T03:48:42.250Z,1015.43
2023-02-19T03:49:42.237Z,1015.37
2023-02-19T03:50:42.222Z,1015.43
2023-02-19T03:51:42.210Z,1015.50
2023-02-19T03:52:42.208Z,1015.46
2023-02-19T03:53:42.188Z,1015.51
2023-02-19T03:54:42.170Z,1015.50
2023-02-19T03:55:42.161Z,1015.45
2023-02-19T03:56:42.153Z,1015.53
2023-02-19T03:57:42.162Z,1015.50
2023-02-19T03:58:42.134Z,1015.49
2023-02-19T03:59:42.123Z,1015.56
2023-02-19T04:00:42.082Z,1015.53
2023-02-19T04:01:42.084Z,1015.55
2023-02-19T04:02:42.086Z,1015.53
2023-02-19T04:03:42.058Z,1015.53
2023-02-19T04:04:42.077Z,1015.51
2023-02-19T04:05:42.045Z,1015.58
2023-02-19T04:06:42.009Z,1015.55
2023-02-19T04:07:42.027Z,1015.54
2023-02-19T04:08:41.985Z,1015.58
2023-02-19T04:09:41.977Z,1015.57
2023-02-19T04:10:41.961Z,1015.61
2023-02-19T04:11:41.959Z,1015.59
2023-02-19T04:12:42.078Z,1015.65
2023-02-19T04:13:41.930Z,1015.66
2023-02-19T04:14:41.909Z,1015.66
2023-02-19T04:15:41.896Z,1015.70
2023-02-19T04:16:41.917Z,1015.69
2023-02-19T04:17:41.870Z,1015.72
2023-02-19T04:18:41.860Z,1015.72
2023-02-19T04:19:41.856Z,1015.75
2023-02-19T04:20:41.831Z,1015.78
2023-02-19T04:21:41.818Z,1015.77
2023-02-19T04:22:41.794Z,1015.85
2023-02-19T04:23:41.822Z,1015.77
2023-02-19T04:24:41.774Z,1015.83
2023-02-19T04:25:41.763Z,1015.87
2023-02-19T04:26:41.754Z,1015.86
2023-02-19T04:27:41.739Z,1015.87
2023-02-19T04:28:41.750Z,1015.92
2023-02-19T04:29:41.720Z,1015.91
2023-02-19T04:30:41.743Z,1015.91
2023-02-19T04:31:41.697Z,1015.89
2023-02-19T04:32:41.662Z,1015.90
2023-02-19T04:33:41.671Z,1015.91
2023-02-19T04:34:41.639Z,1015.96
2023-02-19T04:35:41.618Z,1015.93
2023-02-19T04:36:41.597Z,1015.93
2023-02-19T04:37:41.600Z,1015.97
2023-02-19T04:38:41.586Z,1015.92
2023-02-19T04:39:41.596Z,1015.90
2023-02-19T04:40:41.548Z,1016.00
2023-02-19T04:41:41.539Z,1015.97
2023-02-19T04:42:41.537Z,1016.02
2023-02-19T04:43:41.544Z,1016.01
2023-02-19T04:44:41.494Z,1016.08
2023-02-19T04:45:41.493Z,1016.07
2023-02-19T04:46:43.050Z,1016.01
2023-02-19T04:47:41.455Z,1016.07
2023-02-19T04:48:41.465Z,1016.06
2023-02-19T04:49:41.426Z,1016.11
2023-02-19T04:50:41.424Z,1016.10
2023-02-19T04:51:41.428Z,1016.17
2023-02-19T04:52:41.388Z,1016.12
2023-02-19T04:53:41.386Z,1016.20
2023-02-19T04:54:41.358Z,1016.14
2023-02-19T04:55:41.354Z,1016.19
2023-02-19T04:56:41.346Z,1016.16
2023-02-19T04:57:41.361Z,1016.21
2023-02-19T04:58:41.324Z,1016.23
2023-02-19T04:59:41.306Z,1016.24
2023-02-19T05:00:41.308Z,1016.23
2023-02-19T05:01:41.300Z,1016.27
2023-02-19T05:02:41.258Z,1016.29
2023-02-19T05:03:41.274Z,1016.24
2023-02-19T05:04:41.303Z,1016.36
2023-02-19T05:05:41.208Z,1016.35
2023-02-19T05:06:41.210Z,1016.31
2023-02-19T05:07:41.191Z,1016.32
2023-02-19T05:08:41.198Z,1016.43
2023-02-19T05:09:41.175Z,1016.43
2023-02-19T05:10:41.146Z,1016.34
2023-02-19T05:11:41.132Z,1016.39
2023-02-19T05:12:41.118Z,1016.47
2023-02-19T05:13:41.206Z,1016.39
2023-02-19T05:14:41.091Z,1016.43
2023-02-19T05:15:41.113Z,1016.44
2023-02-19T05:16:41.077Z,1016.51
2023-02-19T05:17:41.050Z,1016.46
2023-02-19T05:18:41.031Z,1016.52
2023-02-19T05:19:41.041Z,1016.57
2023-02-19T05:20:41.000Z,1016.53
2023-02-19T05:21:41.007Z,1016.54
2023-02-19T05:22:40.988Z,1016.59
2023-02-19T05:23:40.972Z,1016.58
2023-02-19T05:24:40.971Z,1016.55
2023-02-19T05:25:40.943Z,1016.61
2023-02-19T05:26:40.922Z,1016.64
2023-02-19T05:27:40.918Z,1016.61
2023-02-19T05:28:40.913Z,1016.63
2023-02-19T05:29:40.900Z,1016.65
2023-02-19T05:30:40.880Z,1016.65
2023-02-19T05:31:40.986Z,1016.69
2023-02-19T05:32:40.871Z,1016.68
2023-02-19T05:33:40.851Z,1016.75
2023-02-19T05:34:40.832Z,1016.72
2023-02-19T05:35:40.810Z,1016.70
2023-02-19T05:36:40.791Z,1016.73
2023-02-19T05:37:40.791Z,1016.69
2023-02-19T05:38:40.798Z,1016.72
2023-02-19T05:39:40.781Z,1016.73
2023-02-19T05:40:40.750Z,1016.74
2023-02-19T05:41:40.751Z,1016.71
2023-02-19T05:42:40.712Z,1016.75
2023-02-19T05:43:40.715Z,1016.76
2023-02-19T05:44:40.692Z,1016.72
2023-02-19T05:45:40.672Z,1016.76
2023-02-19T05:46:40.720Z,1016.81
2023-02-19T05:47:40.651Z,1016.87
2023-02-19T05:48:40.640Z,1016.83
2023-02-19T05:49:40.668Z,1016.89
2023-02-19T05:50:40.605Z,1016.88
2023-02-19T05:51:40.602Z,1016.89
2023-02-19T05:52:40.583Z,1016.95
2023-02-19T05:53:40.570Z,1016.86
2023-02-19T05:54:40.563Z,1016.92
2023-02-19T05:55:40.550Z,1016.88
2023-02-19T05:56:40.529Z,1016.89
2023-02-19T05:57:43.321Z,1016.86
2023-02-19T05:58:40.520Z,1016.95
2023-02-19T05:59:40.506Z,1016.91
2023-02-19T06:00:40.473Z,1016.96
2023-02-19T06:01:40.465Z,1017.01
2023-02-19T06:02:40.464Z,1016.98
2023-02-19T06:03:40.457Z,1016.93
2023-02-19T06:04:40.433Z,1016.97
2023-02-19T06:05:40.405Z,1016.97
2023-02-19T06:06:40.396Z,1016.96
2023-02-19T06:07:40.386Z,1017.00
2023-02-19T06:08:40.366Z,1017.06
2023-02-19T06:09:40.364Z,1017.00
2023-02-19T06:10:40.340Z,1017.03
2023-02-19T06:11:40.334Z,1017.01
2023-02-19T06:12:40.318Z,1017.03
2023-02-19T06:13:40.305Z,1017.04
2023-02-19T06:14:40.303Z,1017.05
2023-02-19T06:15:40.275Z,1017.01
2023-02-19T06:16:40.257Z,1017.08
2023-02-19T06:17:40.246Z,1017.14
2023-02-19T06:18:40.227Z,1017.15
2023-02-19T06:19:40.226Z,1017.13
2023-02-19T06:20:40.206Z,1017.09
2023-02-19T06:21:40.196Z,1017.11
2023-02-19T06:22:40.199Z,1017.13
2023-02-19T06:23:40.174Z,1017.16
2023-02-19T06:24:40.166Z,1017.16
2023-02-19T06:25:40.146Z,1017.16
2023-02-19T06:26:40.119Z,1017.16
2023-02-19T06:27:40.187Z,1017.16
2023-02-19T06:28:40.093Z,1017.15
2023-02-19T06:29:40.122Z,1017.19
2023-02-19T06:30:40.068Z,1017.23
2023-02-19T06:31:40.198Z,1017.26
2023-02-19T06:32:40.050Z,1017.24
2023-02-19T06:33:40.078Z,1017.32
2023-02-19T06:34:40.023Z,1017.33
2023-02-19T06:35:40.014Z,1017.35
2023-02-19T06:36:39.995Z,1017.37
2023-02-19T06:37:39.988Z,1017.35
2023-02-19T06:38:39.952Z,1017.37
2023-02-19T06:39:39.963Z,1017.42
2023-02-19T06:40:39.945Z,1017.42
2023-02-19T06:41:39.937Z,1017.41
2023-02-19T06:42:39.935Z,1017.43
2023-02-19T06:43:39.904Z,1017.45
2023-02-19T06:44:39.895Z,1017.44
2023-02-19T06:45:39.885Z,1017.44
2023-02-19T06:46:39.881Z,1017.43
2023-02-19T06:47:39.879Z,1017.41
2023-02-19T06:48:39.867Z,1017.47
2023-02-19T06:49:39.829Z,1017.43
2023-02-19T06:50:39.836Z,1017.47
2023-02-19T06:51:39.805Z,1017.47
2023-02-19T06:52:39.831Z,1017.43
2023-02-19T06:53:39.769Z,1017.44
2023-02-19T06:54:39.758Z,1017.48
2023-02-19T06:55:40.090Z,1017.53
2023-02-19T06:56:39.743Z,1017.50
2023-02-19T06:57:39.730Z,1017.59
2023-02-19T06:58:39.700Z,1017.58
2023-02-19T06:59:39.689Z,1017.58
2023-02-19T07:00:39.696Z,1017.68
2023-02-19T07:01:39.659Z,1017.68
2023-02-19T07:02:39.638Z,1017.71
2023-02-19T07:03:39.637Z,1017.71
2023-02-19T07:04:39.617Z,1017.75
2023-02-19T07:05:39.614Z,1017.82
2023-02-19T07:06:39.585Z,1017.84
2023-02-19T07:07:39.575Z,1017.89
2023-02-19T07:08:39.555Z,1017.89
2023-02-19T07:09:39.557Z,1017.90
2023-02-19T07:10:39.563Z,1017.92
2023-02-19T07:11:39.534Z,1017.87
2023-02-19T07:12:39.504Z,1017.92
2023-02-19T07:13:39.512Z,1017.90
2023-02-19T07:14:39.489Z,1017.91
2023-02-19T07:15:39.494Z,1017.94
2023-02-19T07:16:39.499Z,1017.94
2023-02-19T07:17:39.442Z,1017.90
2023-02-19T07:18:39.425Z,1017.90
2023-02-19T07:19:39.414Z,1017.93
2023-02-19T07:20:39.413Z,1017.96
2023-02-19T07:21:39.389Z,1017.95
2023-02-19T07:22:39.374Z,1017.98
2023-02-19T07:23:39.355Z,1018.03
2023-02-19T07:24:39.344Z,1018.01
2023-02-19T07:25:39.322Z,1018.07
2023-02-19T07:26:39.330Z,1018.12
2023-02-19T07:27:39.304Z,1018.06
2023-02-19T07:28:39.293Z,1018.17
2023-02-19T07:29:39.304Z,1018.16
2023-02-19T07:30:39.264Z,1018.17
2023-02-19T07:31:39.359Z,1018.21
2023-02-19T07:32:39.255Z,1018.21
2023-02-19T07:33:39.244Z,1018.22
2023-02-19T07:34:39.215Z,1018.27
2023-02-19T07:35:39.245Z,1018.26
2023-02-19T07:36:39.214Z,1018.28
2023-02-19T07:37:39.179Z,1018.30
2023-02-19T07:38:39.156Z,1018.32
2023-02-19T07:39:39.158Z,1018.35
2023-02-19T07:40:39.138Z,1018.41
2023-02-19T07:41:39.130Z,1018.39
2023-02-19T07:42:39.108Z,1018.42
2023-02-19T07:43:39.088Z,1018.42
2023-02-19T07:44:39.081Z,1018.47
2023-02-19T07:45:39.104Z,1018.43
2023-02-19T07:46:39.082Z,1018.46
2023-02-19T07:47:39.049Z,1018.46
2023-02-19T07:48:39.029Z,1018.50
2023-02-19T07:49:39.014Z,1018.51
2023-02-19T07:50:39.011Z,1018.53
2023-02-19T07:51:39.007Z,1018.56
2023-02-19T07:52:38.975Z,1018.54
2023-02-19T07:53:38.952Z,1018.57
2023-02-19T07:54:38.965Z,1018.61
2023-02-19T07:55:38.934Z,1018.64
2023-02-19T07:56:38.964Z,1018.71
2023-02-19T07:57:38.907Z,1018.71
2023-02-19T07:58:38.903Z,1018.68
2023-02-19T07:59:38.887Z,1018.70
2023-02-19T08:00:38.873Z,1018.71
2023-02-19T08:01:38.867Z,1018.72
2023-02-19T08:02:38.843Z,1018.78
2023-02-19T08:03:38.941Z,1018.73
2023-02-19T08:04:38.814Z,1018.70
2023-02-19T08:05:38.819Z,1018.71
2023-02-19T08:06:38.804Z,1018.70
2023-02-19T08:07:38.764Z,1018.72
2023-02-19T08:08:38.762Z,1018.76
2023-02-19T08:09:38.745Z,1018.75
2023-02-19T08:10:38.735Z,1018.83
2023-02-19T08:11:38.735Z,1018.86
2023-02-19T08:12:38.735Z,1018.83
2023-02-19T08:13:38.691Z,1018.81
2023-02-19T08:15:48.506Z,1018.88
2023-02-19T08:16:50.223Z,1018.87
2023-02-19T08:17:48.476Z,1018.84
2023-02-19T08:18:48.479Z,1018.84
2023-02-19T08:19:48.447Z,1018.84
2023-02-19T08:20:48.446Z,1018.80
2023-02-19T08:21:48.472Z,1018.85
2023-02-19T08:22:48.418Z,1018.85
2023-02-19T08:23:50.874Z,1018.93
2023-02-19T08:24:48.385Z,1018.92
2023-02-19T08:25:48.369Z,1018.92
2023-02-19T08:26:48.365Z,1018.93
2023-02-19T08:27:48.349Z,1019.00
2023-02-19T08:28:48.336Z,1019.00
2023-02-19T08:29:48.323Z,1018.99
2023-02-19T08:30:48.391Z,1019.03
2023-02-19T08:31:48.447Z,1019.03
2023-02-19T08:32:48.297Z,1019.08
2023-02-19T08:33:48.262Z,1019.06
2023-02-19T08:34:48.265Z,1019.10
2023-02-19T08:35:48.239Z,1019.08
2023-02-19T08:36:48.234Z,1019.11
2023-02-19T08:37:48.222Z,1019.11
2023-02-19T08:38:48.210Z,1019.10
2023-02-19T08:39:48.177Z,1019.05
2023-02-19T08:40:48.167Z,1019.06
2023-02-19T08:41:48.151Z,1018.99
2023-02-19T08:42:48.159Z,1018.98
2023-02-19T08:43:48.129Z,1018.96
2023-02-19T08:44:48.117Z,1019.01
2023-02-19T08:45:48.146Z,1019.01
2023-02-19T08:46:48.096Z,1019.01
2023-02-19T08:47:48.090Z,1019.01
2023-02-19T08:48:48.088Z,1019.07
2023-02-19T08:49:48.037Z,1019.03
2023-02-19T08:50:48.027Z,1018.96
2023-02-19T08:51:48.017Z,1019.01
2023-02-19T08:52:48.037Z,1019.00
2023-02-19T08:53:48.004Z,1019.04
2023-02-19T08:54:47.993Z,1019.06
2023-02-19T08:55:47.956Z,1019.13
2023-02-19T08:56:47.977Z,1019.16
2023-02-19T08:57:50.330Z,1019.13
2023-02-19T08:58:47.925Z,1019.12
2023-02-19T08:59:47.908Z,1019.14
2023-02-19T09:00:47.913Z,1019.16
2023-02-19T09:01:47.898Z,1019.11
2023-02-19T09:02:47.886Z,1019.12
2023-02-19T09:03:47.858Z,1019.09
2023-02-19T09:04:47.860Z,1019.11
2023-02-19T09:05:47.816Z,1019.07
2023-02-19T09:06:47.828Z,1019.10
2023-02-19T09:07:47.806Z,1019.15
2023-02-19T09:08:47.792Z,1019.13
2023-02-19T09:09:47.769Z,1019.13
2023-02-19T09:10:47.776Z,1019.16
2023-02-19T09:11:49.303Z,1019.16
2023-02-19T09:12:47.747Z,1019.24
2023-02-19T09:13:47.748Z,1019.24
2023-02-19T09:14:47.727Z,1019.25
2023-02-19T09:15:47.726Z,1019.29
2023-02-19T09:16:47.676Z,1019.30
2023-02-19T09:17:47.678Z,1019.32
2023-02-19T09:18:47.650Z,1019.37
2023-02-19T09:19:50.041Z,1019.35
2023-02-19T09:20:47.645Z,1019.35
2023-02-19T09:21:47.613Z,1019.35
2023-02-19T09:22:47.625Z,1019.42
2023-02-19T09:23:47.597Z,1019.45
2023-02-19T09:24:47.579Z,1019.45
2023-02-19T09:25:47.562Z,1019.46
2023-02-19T09:26:47.542Z,1019.45
2023-02-19T09:27:47.565Z,1019.57
2023-02-19T09:28:47.510Z,1019.50
2023-02-19T09:29:47.509Z,1019.42
2023-02-19T09:30:47.502Z,1019.54
2023-02-19T09:31:47.603Z,1019.55
2023-02-19T09:32:47.483Z,1019.60
2023-02-19T09:33:47.458Z,1019.64
2023-02-19T09:34:47.445Z,1019.62
2023-02-19T09:35:47.432Z,1019.63
2023-02-19T09:36:47.410Z,1019.56
2023-02-19T09:37:47.416Z,1019.61
2023-02-19T09:38:47.403Z,1019.62
2023-02-19T09:39:47.381Z,1019.61
2023-02-19T09:40:47.355Z,1019.65
2023-02-19T09:41:47.359Z,1019.68
2023-02-19T09:42:47.338Z,1019.67
2023-02-19T09:43:47.345Z,1019.64
2023-02-19T09:44:47.296Z,1019.63
2023-02-19T09:45:47.301Z,1019.59
2023-02-19T09:46:47.273Z,1019.59
2023-02-19T09:47:47.288Z,1019.56
2023-02-19T09:48:47.242Z,1019.60
2023-02-19T09:49:47.242Z,1019.59
2023-02-19T09:50:47.214Z,1019.64
2023-02-19T09:51:47.218Z,1019.68
2023-02-19T09:52:47.202Z,1019.63
2023-02-19T09:53:47.210Z,1019.63
2023-02-19T09:54:47.158Z,1019.68
2023-02-19T09:55:47.145Z,1019.66
2023-02-19T09:56:47.162Z,1019.68
2023-02-19T09:57:47.133Z,1019.70
2023-02-19T09:58:47.133Z,1019.74
2023-02-19T09:59:47.104Z,1019.79
2023-02-19T10:00:47.064Z,1019.72
2023-02-19T10:01:47.132Z,1019.73
2023-02-19T10:02:47.076Z,1019.75
2023-02-19T10:03:47.105Z,1019.82
2023-02-19T10:04:47.081Z,1019.88
2023-02-19T10:05:47.005Z,1019.91
2023-02-19T10:06:47.007Z,1019.95
2023-02-19T10:07:46.993Z,1020.07
2023-02-19T10:08:46.976Z,1020.05
2023-02-19T10:09:46.955Z,1020.10
2023-02-19T10:10:46.941Z,1020.09
2023-02-19T10:11:46.937Z,1020.15
2023-02-19T10:12:46.912Z,1020.21
2023-02-19T10:13:46.914Z,1020.18
2023-02-19T10:14:46.901Z,1020.24
2023-02-19T10:15:46.886Z,1020.20
2023-02-19T10:16:46.875Z,1020.38
2023-02-19T10:17:46.845Z,1020.43
2023-02-19T10:18:46.837Z,1020.44
2023-02-19T10:19:46.819Z,1020.43
2023-02-19T10:20:46.795Z,1020.47
2023-02-19T10:21:46.792Z,1020.48
2023-02-19T10:22:46.775Z,1020.40
2023-02-19T10:23:46.776Z,1020.37
2023-02-19T10:24:46.738Z,1020.29
2023-02-19T10:25:46.736Z,1020.29
2023-02-19T10:26:46.734Z,1020.18
2023-02-19T10:27:46.714Z,1020.19
2023-02-19T10:28:46.708Z,1020.22
2023-02-19T10:29:46.696Z,1020.30
2023-02-19T10:30:46.671Z,1020.32
2023-02-19T10:31:46.704Z,1020.37
2023-02-19T10:32:46.630Z,1020.43
2023-02-19T10:33:46.648Z,1020.41
2023-02-19T10:34:46.611Z,1020.51
2023-02-19T10:35:46.598Z,1020.49
2023-02-19T10:36:46.582Z,1020.49
2023-02-19T10:37:46.568Z,1020.56
2023-02-19T10:38:46.562Z,1020.59
2023-02-19T10:39:46.551Z,1020.58
2023-02-19T10:40:46.530Z,1020.60
2023-02-19T10:41:46.556Z,1020.71
2023-02-19T10:42:46.501Z,1020.64
2023-02-19T10:43:46.510Z,1020.69
2023-02-19T10:44:46.472Z,1020.68
2023-02-19T10:45:46.462Z,1020.69
2023-02-19T10:46:46.467Z,1020.63
2023-02-19T10:47:46.437Z,1020.76
2023-02-19T10:48:46.431Z,1020.73
2023-02-19T10:49:46.401Z,1020.72
2023-02-19T10:50:46.404Z,1020.70
2023-02-19T10:51:46.380Z,1020.72
2023-02-19T10:52:46.360Z,1020.71
2023-02-19T10:53:46.386Z,1020.75
2023-02-19T10:54:46.334Z,1020.76
2023-02-19T10:55:46.329Z,1020.82
2023-02-19T10:56:46.319Z,1020.84
2023-02-19T10:57:46.303Z,1020.90
2023-02-19T10:58:46.283Z,1020.84
2023-02-19T10:59:46.276Z,1020.86
2023-02-19T11:00:46.255Z,1020.85
2023-02-19T11:01:46.296Z,1020.87
2023-02-19T11:02:46.225Z,1020.90
2023-02-19T11:03:46.236Z,1020.94
2023-02-19T11:04:46.221Z,1020.92
2023-02-19T11:05:46.196Z,1020.88
2023-02-19T11:06:46.177Z,1020.94
2023-02-19T11:07:46.171Z,1020.94
2023-02-19T11:08:46.160Z,1020.93
2023-02-19T11:09:46.142Z,1020.96
2023-02-19T11:10:46.120Z,1020.96
2023-02-19T11:11:46.118Z,1020.98
2023-02-19T11:12:46.101Z,1021.05
2023-02-19T11:13:46.094Z,1021.05
2023-02-19T11:14:46.085Z,1021.09
2023-02-19T11:15:46.053Z,1021.07
2023-02-19T11:16:46.050Z,1021.13
2023-02-19T11:17:46.041Z,1021.09
2023-02-19T11:18:46.023Z,1021.09
2023-02-19T11:19:46.014Z,1021.15
2023-02-19T11:20:45.985Z,1021.14
2023-02-19T11:21:46.014Z,1021.17
2023-02-19T11:22:46.010Z,1021.10
2023-02-19T11:23:45.978Z,1021.13
2023-02-19T11:24:45.977Z,1021.18
2023-02-19T11:25:45.993Z,1021.15
2023-02-19T11:26:45.895Z,1021.10
2023-02-19T11:27:45.936Z,1021.09
2023-02-19T11:28:45.919Z,1021.14
2023-02-19T11:29:45.880Z,1021.08
2023-02-19T11:30:45.884Z,1021.15
2023-02-19T11:31:45.897Z,1021.17
2023-02-19T11:32:45.815Z,1021.07
2023-02-19T11:33:45.856Z,1021.07
2023-02-19T11:34:45.785Z,1021.06
2023-02-19T11:35:45.867Z,1020.99
2023-02-19T11:36:53.357Z,1021.02
2023-02-19T11:37:52.925Z,1020.97
2023-02-19T11:38:45.763Z,1020.93
2023-02-19T11:39:53.272Z,1020.89
2023-02-19T11:40:52.796Z,1020.83
2023-02-19T11:41:45.760Z,1020.80
2023-02-19T11:42:52.722Z,1020.84
2023-02-19T11:43:45.717Z,1020.76
2023-02-19T11:44:45.653Z,1020.77
2023-02-19T11:45:45.661Z,1020.82
2023-02-19T11:46:45.677Z,1020.78
2023-02-19T11:47:45.623Z,1020.82
2023-02-19T11:48:45.671Z,1020.90
2023-02-19T11:49:45.601Z,1020.94
2023-02-19T11:50:45.611Z,1020.90
2023-02-19T11:51:51.484Z,1020.89
2023-02-19T11:52:46.567Z,1020.89
2023-02-19T11:53:46.702Z,1020.86
2023-02-19T11:54:45.546Z,1020.88
2023-02-19T11:55:45.545Z,1020.88
2023-02-19T11:56:45.534Z,1020.86
2023-02-19T11:57:45.498Z,1020.81
2023-02-19T11:58:45.519Z,1020.83
2023-02-19T11:59:45.486Z,1020.74
2023-02-19T12:00:45.486Z,1020.72
2023-02-19T12:01:45.473Z,1020.70
2023-02-19T12:02:45.428Z,1020.68
2023-02-19T12:03:45.416Z,1020.73
2023-02-19T12:04:45.490Z,1020.72
2023-02-19T12:05:45.394Z,1020.75
2023-02-19T12:06:45.385Z,1020.73